createdAt,value
2023-09-28T11:41:11.967Z,5.15
2023-09-28T11:43:52.958Z,5.97
2023-09-28T11:46:03.719Z,5.13
2023-09-28T11:48:16.391Z,4.53
2023-09-28T11:50:32.613Z,6.88
2023-09-28T11:52:39.926Z,6.47
2023-09-28T11:54:47.557Z,5.38
2023-09-28T11:56:56.853Z,5.00
2023-09-28T11:59:17.811Z,4.32
2023-09-28T12:01:22.909Z,5.28
2023-09-28T12:03:30.388Z,4.70
2023-09-28T12:05:51.080Z,5.32
2023-09-28T12:07:52.673Z,5.15
2023-09-28T12:10:04.274Z,3.58
2023-09-28T12:12:12.586Z,4.03
2023-09-28T12:14:14.218Z,4.25
2023-09-28T12:16:24.102Z,3.75
2023-09-28T12:18:31.740Z,4.28
2023-09-28T12:20:33.785Z,3.45
2023-09-28T12:22:35.451Z,74.18
2023-09-28T12:24:37.191Z,38.33
2023-09-28T12:26:57.486Z,6.87
2023-09-28T12:29:00.196Z,2.88
2023-09-28T12:31:05.494Z,4.03
2023-09-28T12:33:13.121Z,156.60
2023-09-28T12:35:20.946Z,119.17
2023-09-28T12:37:22.818Z,192.15
2023-09-28T12:39:27.267Z,175.77
2023-09-28T12:41:28.851Z,196.95
2023-09-28T12:43:35.522Z,180.25
2023-09-28T12:45:44.691Z,197.20
2023-09-28T12:47:49.244Z,357.95
2023-09-28T12:49:57.579Z,443.45
2023-09-28T12:51:59.147Z,208.57
2023-09-28T12:54:19.140Z,3.55
2023-09-28T12:56:24.777Z,4.90
2023-09-28T12:58:26.693Z,3.72
2023-09-28T13:00:31.122Z,34.92
2023-09-28T13:02:32.733Z,144.20
2023-09-28T13:04:37.192Z,179.90
2023-09-28T13:06:44.693Z,172.43
2023-09-28T13:08:49.398Z,228.60
2023-09-28T13:10:56.716Z,367.35
2023-09-28T13:12:58.243Z,351.93
2023-09-28T13:14:59.839Z,404.92
2023-09-28T13:17:01.445Z,416.87
2023-09-28T13:19:04.917Z,434.30
2023-09-28T13:21:09.812Z,443.40
2023-09-28T13:23:14.060Z,434.27
2023-09-28T13:25:34.506Z,439.17
2023-09-28T13:27:36.215Z,475.20
2023-09-28T13:29:43.944Z,475.70
2023-09-28T13:31:45.586Z,494.02
2023-09-28T13:33:53.447Z,477.15
2023-09-28T13:35:58.071Z,490.05
2023-09-28T13:38:00.721Z,518.30
2023-09-28T13:40:19.894Z,502.98
2023-09-28T13:42:27.610Z,503.05
2023-09-28T13:44:29.537Z,523.58
2023-09-28T13:46:38.077Z,518.30
2023-09-28T13:48:45.566Z,552.03
2023-09-28T13:50:50.066Z,544.80
2023-09-28T13:53:10.500Z,541.40
2023-09-28T13:55:17.752Z,564.20
2023-09-28T13:57:19.450Z,590.78
2023-09-28T13:59:27.392Z,556.85
2023-09-28T14:01:28.942Z,538.33
2023-09-28T14:03:30.980Z,574.80
2023-09-28T14:05:52.433Z,578.45
2023-09-28T14:07:57.822Z,596.13
2023-09-28T14:10:04.521Z,613.63
2023-09-28T14:12:13.422Z,622.72
2023-09-28T14:14:34.177Z,604.50
2023-09-28T14:16:38.409Z,652.75
2023-09-28T14:18:44.471Z,604.45
2023-09-28T14:20:51.398Z,612.83
2023-09-28T14:23:01.063Z,626.23
2023-09-28T14:25:05.107Z,638.58
2023-09-28T14:29:17.087Z,622.33
2023-09-28T14:31:21.564Z,617.20
2023-09-28T14:33:25.202Z,621.00
2023-09-28T14:37:30.614Z,608.42
2023-09-28T14:39:36.591Z,603.83
2023-09-28T14:41:40.156Z,611.75
2023-09-28T14:43:45.831Z,611.33
2023-09-28T14:45:47.870Z,618.03
2023-09-28T14:47:57.320Z,588.33
2023-09-28T14:50:05.065Z,597.08
2023-09-28T14:52:08.850Z,602.83
2023-09-28T14:54:12.082Z,576.80
2023-09-28T14:56:17.983Z,578.77
2023-09-28T14:58:39.904Z,605.57
2023-09-28T15:00:46.113Z,609.73
2023-09-28T15:03:07.368Z,581.33
2023-09-28T15:05:12.089Z,604.00
2023-09-28T15:07:13.745Z,599.83
2023-09-28T15:09:15.248Z,574.40
2023-09-28T15:11:20.375Z,556.40
2023-09-28T15:13:27.890Z,555.37
2023-09-28T15:15:32.575Z,530.20
2023-09-28T15:17:35.449Z,538.63
2023-09-28T15:19:39.553Z,512.93
2023-09-28T15:21:43.945Z,479.67
2023-09-28T15:23:48.461Z,405.27
2023-09-28T15:25:53.083Z,395.43
2023-09-28T15:27:57.620Z,414.90
2023-09-28T15:30:01.789Z,470.83
2023-09-28T15:32:03.500Z,505.17
2023-09-28T15:34:07.959Z,487.50
2023-09-28T15:36:09.447Z,469.37
2023-09-28T15:38:13.934Z,437.57
2023-09-28T15:40:15.500Z,416.70
2023-09-28T15:42:23.176Z,429.00
2023-09-28T15:44:30.350Z,402.67
2023-09-28T15:46:50.610Z,464.83
2023-09-28T15:48:52.227Z,504.27
2023-09-28T15:50:56.404Z,506.67
2023-09-28T15:53:00.771Z,484.07
2023-09-28T15:55:02.727Z,505.13
2023-09-28T15:57:04.648Z,496.33
2023-09-28T15:59:06.238Z,484.33
2023-09-28T16:01:11.278Z,491.03
2023-09-28T16:03:12.844Z,491.17
2023-09-28T16:05:14.475Z,474.67
2023-09-28T16:07:16.629Z,455.33
2023-09-28T16:09:18.394Z,461.80
2023-09-28T16:11:25.986Z,462.27
2023-09-28T16:13:30.159Z,485.77
2023-09-28T16:15:34.623Z,438.70
2023-09-28T16:17:37.180Z,410.33
2023-09-28T16:19:41.839Z,405.57
2023-09-28T16:21:43.499Z,423.90
2023-09-28T16:24:04.124Z,424.87
2023-09-28T16:26:09.973Z,435.03
2023-09-28T16:28:16.020Z,425.87
2023-09-28T16:30:20.390Z,432.47
2023-09-28T16:32:24.815Z,396.90
2023-09-28T16:34:31.969Z,433.63
2023-09-28T16:36:33.508Z,400.23
2023-09-28T16:38:40.796Z,378.13
2023-09-28T16:40:42.486Z,291.37
2023-09-28T16:42:49.923Z,326.73
2023-09-28T16:44:57.264Z,284.77
2023-09-28T16:46:59.268Z,339.53
2023-09-28T16:49:07.081Z,301.40
2023-09-28T16:51:09.581Z,219.07
2023-09-28T16:53:11.152Z,245.87
2023-09-28T16:55:15.320Z,205.87
2023-09-28T16:57:19.854Z,209.30
2023-09-28T16:59:21.717Z,173.33
2023-09-28T17:01:23.610Z,181.47
2023-09-28T17:03:33.670Z,163.87
2023-09-28T17:05:35.466Z,167.23
2023-09-28T17:07:39.790Z,176.97
2023-09-28T17:10:05.021Z,220.97
2023-09-28T17:12:07.379Z,217.90
2023-09-28T17:14:09.003Z,208.20
2023-09-28T17:16:11.017Z,182.17
2023-09-28T17:18:21.261Z,250.50
2023-09-28T17:20:24.845Z,239.27
2023-09-28T17:22:32.995Z,264.93
2023-09-28T17:24:44.393Z,190.23
2023-09-28T17:26:53.992Z,168.73
2023-09-28T17:29:04.019Z,203.40
2023-09-28T17:31:14.211Z,221.87
2023-09-28T17:33:23.083Z,170.30
2023-09-28T17:35:27.609Z,165.20
2023-09-28T17:37:31.538Z,156.60
2023-09-28T17:39:37.667Z,161.32
2023-09-28T17:41:41.802Z,160.47
2023-09-28T17:43:53.336Z,161.70
2023-09-28T17:45:56.688Z,172.13
2023-09-28T17:48:06.898Z,174.23
2023-09-28T17:50:29.781Z,168.07
2023-09-28T17:52:35.019Z,149.97
2023-09-28T17:54:41.851Z,147.10
2023-09-28T17:59:16.046Z,142.60
2023-09-28T18:01:30.957Z,152.53
2023-09-28T18:03:35.314Z,123.63
2023-09-28T18:05:39.638Z,172.37
2023-09-28T18:07:44.053Z,186.90
2023-09-28T18:10:04.738Z,239.87
2023-09-28T18:12:12.222Z,182.93
2023-09-28T18:14:20.022Z,220.87
2023-09-28T18:16:21.604Z,299.87
2023-09-28T18:18:29.075Z,276.60
2023-09-28T18:20:31.116Z,276.50
2023-09-28T18:22:35.870Z,280.40
2023-09-28T18:24:38.149Z,274.47
2023-09-28T18:26:39.707Z,200.80
2023-09-28T18:28:43.282Z,234.97
2023-09-28T18:30:44.828Z,304.48
2023-09-28T18:32:47.000Z,285.60
2023-09-28T18:35:08.019Z,161.17
2023-09-28T18:37:16.687Z,160.50
2023-09-28T18:39:18.254Z,309.03
2023-09-28T18:41:21.389Z,317.83
2023-09-28T18:43:27.380Z,281.13
2023-09-28T18:45:28.968Z,356.92
2023-09-28T18:47:36.555Z,435.63
2023-09-28T18:49:40.800Z,462.10
2023-09-28T18:51:48.593Z,470.73
2023-09-28T18:53:56.197Z,464.93
2023-09-28T18:56:05.420Z,456.50
2023-09-28T18:58:09.794Z,452.63
2023-09-28T19:00:29.835Z,461.77
2023-09-28T19:02:31.469Z,443.40
2023-09-28T19:04:35.677Z,458.27
2023-09-28T19:06:37.441Z,466.80
2023-09-28T19:08:41.721Z,466.17
2023-09-28T19:10:43.416Z,478.47
2023-09-28T19:12:45.241Z,459.63
2023-09-28T19:14:50.258Z,462.53
2023-09-28T19:16:55.888Z,490.53
2023-09-28T19:19:00.196Z,486.80
2023-09-28T19:21:02.270Z,498.63
2023-09-28T19:23:09.712Z,506.40
2023-09-28T19:25:11.367Z,506.17
2023-09-28T19:27:32.183Z,508.20
2023-09-28T19:29:42.820Z,509.38
2023-09-28T19:31:44.416Z,514.87
2023-09-28T19:33:45.958Z,474.10
2023-09-28T19:35:47.479Z,498.97
2023-09-28T19:37:51.793Z,357.00
2023-09-28T19:40:12.316Z,291.23
2023-09-28T19:42:20.159Z,233.40
2023-09-28T19:44:24.676Z,352.57
2023-09-28T19:46:26.383Z,275.60
2023-09-28T19:48:27.969Z,308.47
2023-09-28T19:50:48.252Z,310.37
2023-09-28T19:52:56.145Z,264.20
2023-09-28T19:55:04.829Z,258.80
2023-09-28T19:57:12.435Z,335.57
2023-09-28T19:59:14.482Z,297.93
2023-09-28T20:01:16.193Z,305.93
2023-09-28T20:03:18.288Z,292.17
2023-09-28T20:05:22.674Z,254.00
2023-09-28T20:07:42.661Z,221.03
2023-09-28T20:09:44.360Z,231.60
2023-09-28T20:11:46.103Z,227.33
2023-09-28T20:13:47.991Z,309.70
2023-09-28T20:15:52.692Z,414.60
2023-09-28T20:18:00.387Z,463.77
2023-09-28T20:20:11.073Z,406.93
2023-09-28T20:22:15.873Z,499.80
2023-09-28T20:24:17.593Z,522.23
2023-09-28T20:26:19.153Z,498.87
2023-09-28T20:28:23.637Z,496.47
2023-09-28T20:30:25.333Z,494.50
2023-09-28T20:32:30.265Z,476.90
2023-09-28T20:34:38.517Z,471.57
2023-09-28T20:36:46.160Z,458.53
2023-09-28T20:39:00.962Z,431.33
2023-09-28T20:41:08.216Z,437.63
2023-09-28T20:43:19.542Z,458.73
2023-09-28T20:45:30.206Z,453.67
2023-09-28T20:47:39.744Z,476.43
2023-09-28T20:49:57.413Z,484.27
2023-09-28T20:52:14.772Z,473.07
2023-09-28T20:54:30.591Z,378.60
2023-09-28T20:56:38.669Z,366.17
2023-09-28T20:58:48.819Z,364.73
2023-09-28T21:01:00.137Z,336.23
2023-09-28T21:03:12.750Z,334.53
2023-09-28T21:05:26.697Z,396.80
2023-09-28T21:07:44.400Z,347.00
2023-09-28T21:09:49.437Z,388.40
2023-09-28T21:12:03.919Z,390.27
2023-09-28T21:14:12.434Z,389.97
2023-09-28T21:16:18.455Z,356.40
2023-09-28T21:18:20.047Z,358.50
2023-09-28T21:20:21.797Z,374.50
2023-09-28T21:22:23.348Z,366.60
2023-09-28T21:24:27.763Z,350.77
2023-09-28T21:26:35.055Z,256.87
2023-09-28T21:28:55.155Z,254.67
2023-09-28T21:31:15.601Z,268.50
2023-09-28T21:33:17.155Z,291.23
2023-09-28T21:35:24.755Z,301.43
2023-09-28T21:37:45.020Z,278.37
2023-09-28T21:39:46.587Z,259.23
2023-09-28T21:42:07.095Z,259.50
2023-09-28T21:44:14.702Z,240.23
2023-09-28T21:46:22.860Z,242.00
2023-09-28T21:48:24.561Z,246.93
2023-09-28T21:50:28.966Z,229.47
2023-09-28T21:52:48.932Z,224.20
2023-09-28T21:55:09.023Z,215.33
2023-09-28T21:57:10.530Z,222.13
2023-09-28T21:59:17.765Z,233.73
2023-09-28T22:01:22.976Z,234.37
2023-09-28T22:03:24.710Z,227.10
2023-09-28T22:05:30.733Z,227.20
2023-09-28T22:07:35.319Z,237.23
2023-09-28T22:09:36.834Z,221.47
2023-09-28T22:11:41.292Z,212.70
2023-09-28T22:13:43.036Z,229.23
2023-09-28T22:15:46.320Z,328.67
2023-09-28T22:17:48.945Z,307.63
2023-09-28T22:19:51.510Z,278.77
2023-09-28T22:21:56.046Z,332.27
2023-09-28T22:24:00.574Z,246.67
2023-09-28T22:26:21.215Z,242.00
2023-09-28T22:28:29.042Z,302.67
2023-09-28T22:30:49.120Z,283.13
2023-09-28T22:32:53.313Z,232.67
2023-09-28T22:34:59.484Z,220.10
2023-09-28T22:37:19.788Z,220.27
2023-09-28T22:39:21.306Z,218.40
2023-09-28T22:41:41.469Z,206.40
2023-09-28T22:43:45.701Z,200.57
2023-09-28T22:45:50.132Z,206.30
2023-09-28T22:47:54.563Z,201.20
2023-09-28T22:49:56.133Z,211.90
2023-09-28T22:52:03.498Z,188.03
2023-09-28T22:54:05.180Z,182.93
2023-09-28T22:56:07.508Z,175.60
2023-09-28T22:58:14.989Z,165.10
2023-09-28T23:00:22.454Z,130.10
2023-09-28T23:02:30.033Z,128.17
2023-09-28T23:04:34.185Z,175.70
2023-09-28T23:06:36.186Z,193.37
2023-09-28T23:08:43.703Z,191.70
2023-09-28T23:10:47.872Z,186.00
2023-09-28T23:13:07.773Z,200.53
2023-09-28T23:15:12.397Z,203.47
2023-09-28T23:17:15.177Z,196.20
2023-09-28T23:19:16.724Z,188.50
2023-09-28T23:21:21.622Z,178.80
2023-09-28T23:23:23.256Z,172.07
2023-09-28T23:25:27.385Z,172.73
2023-09-28T23:27:28.857Z,169.17
2023-09-28T23:29:34.366Z,170.67
2023-09-28T23:31:38.904Z,154.67
2023-09-28T23:33:40.527Z,158.53
2023-09-28T23:35:47.599Z,150.07
2023-09-28T23:37:56.584Z,3.27
2023-09-28T23:40:02.967Z,2.63
2023-09-28T23:42:07.325Z,3.67
2023-09-28T23:44:15.417Z,4.40
2023-09-28T23:46:21.205Z,4.87
2023-09-28T23:48:22.847Z,3.67
2023-09-28T23:50:27.687Z,5.57
2023-09-28T23:52:49.123Z,4.93
2023-09-28T23:54:54.219Z,9.97
2023-09-28T23:56:55.912Z,7.63
2023-09-28T23:58:58.227Z,6.07
